Time;durP1;ratioP1;P1;durP2;ratioP2;P2;SDS_P1;SDS_P2;PMS_P1;PMS_P2;Temp;Humidity;BMP_temperature;BMP_pressure;BME280_temperature;BME280_humidity;BME280_pressure;Samples;Min_cycle;Max_cycle;Signal;HPM_P1;HPM_P2
2022/09/27 00:01:06;;;;;;;0.10;0.10;;;9.80;99.90;;;;;;5072532;28;20754;-76
2022/09/27 00:03:33;;;;;;;0.10;0.10;;;9.80;99.90;;;;;;5071505;28;20518;-76
2022/09/27 00:06:23;;;;;;;0.10;0.10;;;9.80;99.90;;;;;;5067529;28;20466;-75
2022/09/27 00:08:50;;;;;;;0.10;0.10;;;9.70;99.90;;;;;;5071743;28;20423;-75
2022/09/27 00:11:29;;;;;;;0.10;0.10;;;9.80;99.90;;;;;;5071775;28;20902;-76
2022/09/27 00:13:58;;;;;;;0.20;0.20;;;9.80;99.90;;;;;;5071629;28;20423;-75
2022/09/27 00:16:33;;;;;;;1.70;0.22;;;9.80;99.90;;;;;;5071789;28;20528;-76
2022/09/27 00:19:02;;;;;;;0.10;0.10;;;9.80;99.90;;;;;;5070352;28;20442;-75
2022/09/27 00:21:30;;;;;;;0.10;0.10;;;9.70;99.90;;;;;;5071274;28;20423;-75
2022/09/27 00:23:59;;;;;;;0.10;0.10;;;9.80;99.90;;;;;;5070558;28;20455;-75
2022/09/27 00:26:27;;;;;;;0.10;0.10;;;9.70;99.90;;;;;;5069146;28;20905;-74
2022/09/27 00:28:54;;;;;;;0.10;0.10;;;9.70;99.90;;;;;;5070456;28;21122;-74
2022/09/27 00:31:28;;;;;;;0.20;0.20;;;9.60;99.90;;;;;;5070535;28;20435;-74
2022/09/27 00:33:57;;;;;;;0.10;0.10;;;9.50;99.90;;;;;;5070053;28;20901;-74
2022/09/27 00:36:26;;;;;;;0.20;0.20;;;9.60;99.90;;;;;;5069080;28;20431;-74
2022/09/27 00:38:54;;;;;;;0.10;0.10;;;9.60;99.90;;;;;;5070699;28;20431;-74
2022/09/27 00:41:25;;;;;;;0.00;0.00;;;9.50;99.90;;;;;;5069196;28;20423;-74
2022/09/27 00:43:57;;;;;;;0.20;0.20;;;9.60;99.90;;;;;;5070132;28;20423;-74
2022/09/27 00:46:30;;;;;;;0.10;0.10;;;9.50;99.90;;;;;;5070402;28;20775;-74
2022/09/27 00:49:14;;;;;;;0.10;0.10;;;9.50;99.90;;;;;;5069966;28;20427;-74
2022/09/27 00:51:48;;;;;;;0.10;0.10;;;9.50;99.90;;;;;;5070689;28;20514;-74
2022/09/27 00:54:17;;;;;;;0.10;0.10;;;9.50;99.90;;;;;;5069974;28;20430;-74
2022/09/27 00:56:48;;;;;;;0.10;0.10;;;9.50;99.90;;;;;;5069972;28;20424;-74
2022/09/27 00:59:33;;;;;;;0.10;0.10;;;9.50;99.90;;;;;;5070073;28;20570;-74
2022/09/27 01:02:05;;;;;;;0.00;0.00;;;9.50;99.90;;;;;;5069561;28;20855;-75
2022/09/27 01:04:34;;;;;;;0.10;0.10;;;9.40;99.90;;;;;;5069521;28;20511;-74
2022/09/27 01:07:01;;;;;;;0.22;0.22;;;9.50;99.90;;;;;;5070324;28;20435;-73
2022/09/27 01:09:31;;;;;;;0.03;0.03;;;9.40;99.90;;;;;;5069919;28;20437;-73
2022/09/27 01:12:12;;;;;;;0.10;0.10;;;9.40;99.90;;;;;;5070011;28;20434;-73
2022/09/27 01:14:49;;;;;;;0.05;0.05;;;9.40;99.90;;;;;;5069576;28;20434;-73
2022/09/27 01:17:50;;;;;;;0.10;0.10;;;9.40;99.90;;;;;;5069811;28;20427;-73
2022/09/27 01:20:22;;;;;;;0.00;0.00;;;9.40;99.90;;;;;;5070097;28;20450;-73
2022/09/27 01:23:33;;;;;;;0.17;0.17;;;9.40;99.90;;;;;;5069838;28;20442;-72
2022/09/27 01:26:48;;;;;;;0.13;0.13;;;9.40;99.90;;;;;;4981419;28;20426;-72
2022/09/27 01:29:46;;;;;;;0.10;0.10;;;9.40;99.90;;;;;;5059093;28;20427;-72
2022/09/27 01:32:28;;;;;;;0.10;0.10;;;9.40;99.90;;;;;;5069681;28;20430;-73
2022/09/27 01:35:38;;;;;;;0.20;0.20;;;9.40;99.90;;;;;;5068953;28;21115;-72
2022/09/27 01:38:37;;;;;;;0.10;0.10;;;9.40;99.90;;;;;;5069302;28;20759;-72
2022/09/27 01:41:17;;;;;;;0.13;0.13;;;9.40;99.90;;;;;;5053663;28;20431;-74
2022/09/27 01:44:17;;;;;;;0.20;0.20;;;9.40;99.90;;;;;;5069157;28;20463;-74
2022/09/27 01:46:52;;;;;;;0.00;0.00;;;9.50;99.90;;;;;;5069422;28;20435;-74
2022/09/27 01:49:40;;;;;;;0.10;0.10;;;9.40;99.90;;;;;;5068279;28;20437;-74
2022/09/27 01:52:10;;;;;;;0.40;0.30;;;9.50;99.90;;;;;;5069903;28;20435;-74
2022/09/27 01:54:46;;;;;;;1.40;0.40;;;9.50;99.90;;;;;;5067880;28;20465;-75
2022/09/27 01:57:22;;;;;;;0.20;0.20;;;9.50;99.90;;;;;;5069502;28;20450;-74
2022/09/27 01:59:57;;;;;;;0.28;0.28;;;9.50;99.90;;;;;;5069774;28;20455;-73
2022/09/27 02:02:25;;;;;;;0.73;0.20;;;9.50;99.90;;;;;;5073384;28;20465;-73
2022/09/27 02:05:02;;;;;;;0.85;0.50;;;9.50;99.90;;;;;;5073421;28;20853;-73
2022/09/27 02:08:05;;;;;;;0.10;0.10;;;9.60;99.90;;;;;;5073324;28;20434;-73
2022/09/27 02:10:41;;;;;;;0.30;0.30;;;9.60;99.90;;;;;;5073421;28;20770;-73
2022/09/27 02:13:33;;;;;;;0.30;0.30;;;9.50;99.90;;;;;;5072481;28;20431;-73
2022/09/27 02:16:24;;;;;;;0.20;0.20;;;9.50;99.90;;;;;;5072983;28;20430;-72
2022/09/27 02:19:05;;;;;;;0.20;0.20;;;9.50;99.90;;;;;;5072901;28;20431;-72
2022/09/27 02:22:08;;;;;;;0.30;0.20;;;9.40;99.90;;;;;;5071522;28;20427;-72
2022/09/27 02:24:59;;;;;;;0.20;0.20;;;9.40;99.90;;;;;;5052063;28;20421;-72
2022/09/27 02:27:57;;;;;;;0.10;0.10;;;9.40;99.90;;;;;;5052655;28;20429;-72
2022/09/27 02:30:24;;;;;;;0.10;0.10;;;9.30;99.90;;;;;;5059307;28;20428;-72
2022/09/27 02:32:51;;;;;;;0.50;0.20;;;9.30;99.90;;;;;;5052458;28;20433;-73
2022/09/27 02:35:26;;;;;;;0.10;0.10;;;9.30;99.90;;;;;;5052802;28;20429;-72
2022/09/27 02:37:54;;;;;;;0.30;0.20;;;9.30;99.90;;;;;;5052546;28;20433;-72
2022/09/27 02:40:31;;;;;;;1.50;0.20;;;9.30;99.90;;;;;;5052588;28;21091;-72
2022/09/27 02:43:01;;;;;;;0.10;0.10;;;9.30;99.90;;;;;;5052039;28;20833;-73
2022/09/27 02:46:04;;;;;;;0.40;0.10;;;9.20;99.90;;;;;;5052412;28;20427;-73
2022/09/27 02:48:53;;;;;;;1.40;0.40;;;9.20;99.90;;;;;;4970950;28;20436;-72
2022/09/27 02:51:45;;;;;;;0.00;0.00;;;9.20;99.90;;;;;;4970872;28;20432;-71
2022/09/27 02:54:50;;;;;;;0.20;0.20;;;9.20;99.90;;;;;;4970028;28;20953;-71
2022/09/27 02:57:26;;;;;;;1.15;0.15;;;9.20;99.90;;;;;;4875837;29;20988;-72
2022/09/27 03:00:22;;;;;;;0.17;0.17;;;9.20;99.90;;;;;;4957269;28;20487;-72
2022/09/27 03:02:49;;;;;;;0.22;0.22;;;9.20;99.90;;;;;;4970586;28;20879;-73
2022/09/27 03:05:27;;;;;;;0.10;0.10;;;9.30;99.90;;;;;;4969950;28;20436;-72
2022/09/27 03:07:54;;;;;;;0.20;0.20;;;9.30;99.90;;;;;;4970756;28;20439;-72
2022/09/27 03:10:25;;;;;;;0.20;0.20;;;9.30;99.90;;;;;;4970473;28;20437;-72
2022/09/27 03:12:53;;;;;;;0.10;0.10;;;9.30;99.90;;;;;;4969902;28;20442;-72
2022/09/27 03:15:19;;;;;;;0.20;0.20;;;9.30;99.90;;;;;;4970404;28;20430;-71
2022/09/27 03:17:46;;;;;;;0.10;0.10;;;9.30;99.90;;;;;;4970160;28;20914;-72
2022/09/27 03:20:16;;;;;;;0.28;0.28;;;9.30;99.90;;;;;;4986115;28;20426;-71
2022/09/27 03:22:43;;;;;;;0.20;0.20;;;9.20;99.90;;;;;;4989847;28;20432;-73
2022/09/27 03:25:10;;;;;;;1.10;0.20;;;9.10;99.90;;;;;;5008188;28;20422;-71
2022/09/27 03:27:37;;;;;;;0.10;0.10;;;9.10;99.90;;;;;;5051365;28;20538;-72
2022/09/27 03:30:05;;;;;;;0.10;0.10;;;9.00;99.90;;;;;;5050635;28;20425;-72
2022/09/27 03:32:32;;;;;;;0.10;0.10;;;8.90;99.90;;;;;;5051618;28;20433;-72
2022/09/27 03:34:58;;;;;;;0.10;0.10;;;8.90;99.90;;;;;;5051035;28;20433;-72
2022/09/27 03:37:28;;;;;;;0.00;0.00;;;8.90;99.90;;;;;;5051162;28;20511;-72
2022/09/27 03:39:55;;;;;;;0.10;0.10;;;8.90;99.90;;;;;;5051681;28;20425;-72
2022/09/27 03:42:22;;;;;;;0.20;0.20;;;8.90;99.90;;;;;;5051122;28;20439;-72
2022/09/27 03:44:51;;;;;;;0.10;0.10;;;8.90;99.90;;;;;;5050893;28;20432;-71
2022/09/27 03:47:18;;;;;;;0.10;0.10;;;8.90;99.90;;;;;;5051423;28;20421;-72
2022/09/27 03:49:45;;;;;;;0.22;0.22;;;8.90;99.90;;;;;;5051165;28;20800;-71
2022/09/27 03:52:12;;;;;;;0.10;0.10;;;8.90;99.90;;;;;;5051098;28;20783;-72
2022/09/27 03:54:38;;;;;;;0.10;0.10;;;8.90;99.90;;;;;;5050624;28;20429;-72
2022/09/27 03:57:05;;;;;;;0.20;0.20;;;8.80;99.90;;;;;;5051020;28;20437;-72
2022/09/27 03:59:32;;;;;;;0.10;0.10;;;8.80;99.90;;;;;;5049682;28;20436;-70
2022/09/27 04:02:01;;;;;;;0.00;0.00;;;8.70;99.90;;;;;;5051169;28;20453;-72
2022/09/27 04:04:28;;;;;;;0.40;0.20;;;8.70;99.90;;;;;;5050426;28;20429;-71
2022/09/27 04:06:55;;;;;;;0.30;0.30;;;8.60;99.90;;;;;;5051025;28;20520;-71
2022/09/27 04:09:25;;;;;;;0.10;0.10;;;8.60;99.90;;;;;;5051214;28;20429;-72
2022/09/27 04:11:54;;;;;;;0.10;0.10;;;8.50;99.90;;;;;;5049584;28;20480;-73
2022/09/27 04:14:21;;;;;;;0.10;0.10;;;8.50;99.90;;;;;;5050525;28;20433;-73
2022/09/27 04:16:50;;;;;;;0.28;0.28;;;8.50;99.90;;;;;;5050949;28;20432;-71
2022/09/27 04:19:17;;;;;;;0.10;0.10;;;8.40;99.90;;;;;;5070530;28;20435;-72
2022/09/27 04:21:44;;;;;;;0.10;0.10;;;8.40;99.90;;;;;;5070473;28;20420;-72
2022/09/27 04:24:13;;;;;;;0.15;0.15;;;8.40;99.90;;;;;;5069420;28;20525;-72
2022/09/27 04:26:40;;;;;;;0.10;0.10;;;8.30;99.90;;;;;;5070300;28;20932;-73
2022/09/27 04:29:08;;;;;;;0.00;0.00;;;8.30;99.90;;;;;;5070677;28;20466;-72
2022/09/27 04:31:36;;;;;;;0.15;0.15;;;8.30;99.90;;;;;;5070180;28;20531;-73
2022/09/27 04:34:04;;;;;;;0.15;0.15;;;8.20;99.90;;;;;;5069967;28;20434;-73
2022/09/27 04:36:31;;;;;;;0.10;0.10;;;8.10;99.90;;;;;;5070574;28;20485;-73
2022/09/27 04:39:01;;;;;;;0.10;0.10;;;8.10;99.90;;;;;;5069855;28;20853;-72
2022/09/27 04:41:29;;;;;;;0.10;0.10;;;8.10;99.90;;;;;;5070152;28;20427;-72
2022/09/27 04:43:56;;;;;;;0.20;0.20;;;8.00;99.90;;;;;;5069821;28;20427;-73
2022/09/27 04:46:25;;;;;;;0.70;0.20;;;8.00;99.90;;;;;;5070148;28;20432;-72
2022/09/27 04:48:52;;;;;;;0.10;0.10;;;8.00;99.90;;;;;;5069159;28;20469;-73
2022/09/27 04:51:19;;;;;;;0.10;0.10;;;7.90;99.90;;;;;;5069105;28;20424;-73
2022/09/27 04:53:46;;;;;;;0.10;0.10;;;7.90;99.90;;;;;;5069881;28;20435;-73
2022/09/27 04:56:14;;;;;;;0.00;0.00;;;7.90;99.90;;;;;;5068954;28;20438;-73
2022/09/27 04:58:41;;;;;;;0.17;0.17;;;7.80;99.90;;;;;;5070541;28;20440;-73
2022/09/27 05:01:08;;;;;;;0.20;0.20;;;7.90;99.90;;;;;;5071156;28;20436;-73
2022/09/27 05:03:36;;;;;;;0.20;0.20;;;7.90;99.90;;;;;;5069871;28;20446;-73
2022/09/27 05:06:03;;;;;;;0.50;0.10;;;7.90;99.90;;;;;;5070018;28;20458;-74
2022/09/27 05:08:30;;;;;;;0.10;0.10;;;7.90;99.90;;;;;;5069904;28;20427;-73
2022/09/27 05:10:57;;;;;;;0.10;0.10;;;8.00;99.90;;;;;;5068982;28;20485;-73
2022/09/27 05:13:24;;;;;;;0.10;0.10;;;8.00;99.90;;;;;;5069254;28;20423;-72
2022/09/27 05:15:51;;;;;;;0.10;0.10;;;8.00;99.90;;;;;;5069586;28;20431;-73
2022/09/27 05:18:18;;;;;;;0.33;0.33;;;8.10;99.90;;;;;;5069908;28;20459;-73
2022/09/27 05:20:45;;;;;;;0.10;0.10;;;8.10;99.90;;;;;;5069868;28;20427;-72
2022/09/27 05:23:12;;;;;;;0.15;0.15;;;8.10;99.90;;;;;;5069274;28;20450;-74
2022/09/27 05:25:39;;;;;;;0.30;0.20;;;8.20;99.90;;;;;;5069764;28;20423;-74
2022/09/27 05:28:10;;;;;;;0.08;0.08;;;8.10;99.90;;;;;;5068536;28;20828;-75
2022/09/27 05:30:37;;;;;;;0.17;0.17;;;8.20;99.90;;;;;;5070021;28;20423;-74
2022/09/27 05:33:04;;;;;;;0.13;0.13;;;8.20;99.90;;;;;;5069638;28;20435;-75
2022/09/27 05:35:32;;;;;;;0.10;0.10;;;8.20;99.90;;;;;;5071740;28;20917;-75
2022/09/27 05:38:00;;;;;;;0.80;0.20;;;8.30;99.90;;;;;;5073910;28;20430;-75
2022/09/27 05:40:28;;;;;;;0.10;0.10;;;8.40;99.90;;;;;;5073735;28;20798;-75
2022/09/27 05:43:07;;;;;;;0.10;0.10;;;8.40;99.90;;;;;;5073304;28;20434;-75
2022/09/27 05:45:34;;;;;;;0.10;0.10;;;8.40;99.90;;;;;;5072717;28;20977;-76
2022/09/27 05:48:01;;;;;;;0.20;0.20;;;8.50;99.90;;;;;;5073942;28;20427;-74
2022/09/27 05:50:27;;;;;;;0.10;0.10;;;8.60;99.90;;;;;;5073881;28;20427;-74
2022/09/27 05:52:57;;;;;;;0.10;0.10;;;8.60;99.90;;;;;;5073459;28;20431;-76
2022/09/27 05:55:23;;;;;;;0.88;0.28;;;8.70;99.90;;;;;;5072516;28;20427;-75
2022/09/27 05:57:59;;;;;;;0.77;0.10;;;8.80;99.90;;;;;;5072473;28;20431;-76
2022/09/27 06:00:29;;;;;;;0.10;0.10;;;8.80;99.90;;;;;;5074265;28;20427;-76
2022/09/27 06:03:01;;;;;;;0.10;0.10;;;8.80;99.90;;;;;;5073930;28;20423;-74
2022/09/27 06:05:33;;;;;;;0.20;0.20;;;8.90;99.90;;;;;;5073514;28;21147;-75
2022/09/27 06:08:07;;;;;;;0.10;0.10;;;9.00;99.90;;;;;;5073861;28;20433;-74
2022/09/27 06:10:34;;;;;;;0.17;0.17;;;9.00;99.90;;;;;;5072241;28;20478;-74
2022/09/27 06:13:04;;;;;;;0.20;0.20;;;9.10;99.90;;;;;;5072625;28;20423;-73
2022/09/27 06:15:32;;;;;;;0.10;0.10;;;9.10;99.90;;;;;;5073160;28;20737;-75
2022/09/27 06:18:09;;;;;;;0.20;0.20;;;9.20;99.90;;;;;;5073222;28;21063;-74
2022/09/27 06:20:38;;;;;;;0.10;0.10;;;9.20;99.90;;;;;;5073115;28;20427;-74
2022/09/27 06:23:10;;;;;;;0.10;0.10;;;9.30;99.90;;;;;;5071515;28;20418;-73
2022/09/27 06:25:41;;;;;;;0.20;0.20;;;9.30;99.90;;;;;;5072895;28;20510;-72
2022/09/27 06:28:10;;;;;;;0.10;0.10;;;9.40;99.90;;;;;;5072617;28;20514;-73
2022/09/27 06:30:46;;;;;;;0.10;0.10;;;9.40;99.90;;;;;;5072648;28;20432;-74
2022/09/27 06:33:15;;;;;;;0.20;0.20;;;9.40;99.90;;;;;;5072324;28;20955;-73
2022/09/27 06:35:41;;;;;;;0.50;0.20;;;9.50;99.90;;;;;;5072429;28;20918;-74
2022/09/27 06:38:11;;;;;;;0.20;0.20;;;9.60;99.90;;;;;;5072814;28;20431;-74
2022/09/27 06:40:38;;;;;;;0.20;0.20;;;9.60;99.90;;;;;;5072628;28;20485;-75
2022/09/27 06:43:08;;;;;;;0.20;0.20;;;9.70;99.90;;;;;;5073030;28;20435;-75
2022/09/27 06:45:36;;;;;;;0.60;0.10;;;9.80;99.90;;;;;;5072000;28;20519;-74
2022/09/27 06:48:08;;;;;;;0.20;0.20;;;9.80;99.90;;;;;;5071349;28;20431;-74
2022/09/27 06:50:43;;;;;;;0.10;0.10;;;9.80;99.90;;;;;;5072507;28;20438;-72
2022/09/27 06:53:12;;;;;;;0.20;0.20;;;9.90;99.90;;;;;;5072104;28;20437;-74
2022/09/27 06:55:39;;;;;;;0.22;0.22;;;9.80;99.90;;;;;;5072601;28;20427;-74
2022/09/27 07:00:57;;;;;;;0.20;0.20;;;9.90;99.90;;;;;;5072167;28;20459;-76
2022/09/27 07:03:30;;;;;;;0.10;0.10;;;9.90;99.90;;;;;;5072067;28;20432;-76
2022/09/27 07:06:05;;;;;;;0.20;0.20;;;9.90;99.90;;;;;;5072284;28;20427;-74
2022/09/27 07:08:32;;;;;;;0.10;0.10;;;10.00;99.90;;;;;;5072421;28;20423;-74
2022/09/27 07:11:04;;;;;;;0.10;0.10;;;10.10;99.90;;;;;;5071230;28;20442;-74
2022/09/27 07:13:33;;;;;;;0.10;0.10;;;10.20;99.90;;;;;;5071696;28;20423;-74
2022/09/27 07:16:02;;;;;;;0.20;0.20;;;10.40;99.90;;;;;;5072132;28;20431;-74
2022/09/27 07:18:29;;;;;;;0.20;0.20;;;10.50;99.90;;;;;;5072426;28;20470;-72
2022/09/27 07:20:58;;;;;;;0.20;0.20;;;10.60;99.90;;;;;;5072122;28;20432;-73
2022/09/27 07:23:26;;;;;;;0.20;0.20;;;10.70;99.90;;;;;;5071622;28;20447;-72
2022/09/27 07:25:53;;;;;;;0.20;0.20;;;10.80;99.90;;;;;;5071868;28;20423;-73
2022/09/27 07:28:20;;;;;;;0.10;0.10;;;10.80;99.90;;;;;;5069650;28;20423;-75
2022/09/27 07:30:54;;;;;;;0.20;0.20;;;10.90;99.90;;;;;;5071106;28;20436;-73
2022/09/27 07:33:22;;;;;;;0.10;0.10;;;11.00;99.90;;;;;;5051108;28;20441;-74
2022/09/27 07:35:49;;;;;;;0.10;0.10;;;11.00;99.90;;;;;;5051752;28;20437;-73
2022/09/27 07:38:16;;;;;;;0.20;0.20;;;11.20;99.90;;;;;;5051765;28;20436;-74
2022/09/27 07:40:43;;;;;;;0.17;0.17;;;11.30;99.90;;;;;;5051522;28;20941;-73
2022/09/27 07:43:11;;;;;;;0.20;0.20;;;11.50;99.90;;;;;;5051073;28;20429;-73
2022/09/27 07:45:37;;;;;;;0.20;0.20;;;11.70;99.90;;;;;;5051522;28;20432;-71
2022/09/27 07:48:09;;;;;;;0.10;0.10;;;11.80;99.90;;;;;;5051618;28;20516;-71
2022/09/27 07:50:37;;;;;;;0.20;0.20;;;12.00;99.90;;;;;;5051234;28;20438;-75
2022/09/27 07:53:12;;;;;;;0.10;0.10;;;12.00;99.90;;;;;;5052794;28;20491;-73
2022/09/27 07:55:40;;;;;;;0.20;0.20;;;12.20;99.90;;;;;;5051451;28;20429;-75
2022/09/27 07:58:09;;;;;;;0.20;0.20;;;12.20;99.90;;;;;;5050492;28;20437;-75
2022/09/27 08:00:38;;;;;;;0.10;0.10;;;12.40;99.90;;;;;;5051659;28;20425;-74
2022/09/27 08:03:14;;;;;;;0.20;0.20;;;12.40;99.90;;;;;;5051208;28;20429;-75
2022/09/27 08:05:42;;;;;;;0.20;0.20;;;12.50;99.90;;;;;;5050808;28;20432;-74
2022/09/27 08:08:08;;;;;;;0.30;0.30;;;12.60;99.90;;;;;;5061450;28;20489;-76
2022/09/27 08:10:43;;;;;;;0.20;0.20;;;12.70;99.90;;;;;;5071392;28;20428;-76
2022/09/27 08:13:11;;;;;;;0.20;0.20;;;12.70;99.90;;;;;;5071377;28;20515;-75
2022/09/27 08:15:37;;;;;;;0.20;0.20;;;13.00;99.90;;;;;;5071070;28;20519;-75
2022/09/27 08:18:06;;;;;;;0.20;0.20;;;13.50;99.90;;;;;;5071204;28;20446;-74
2022/09/27 08:20:33;;;;;;;0.20;0.20;;;14.10;99.90;;;;;;5069014;28;20423;-75
2022/09/27 08:23:02;;;;;;;0.20;0.20;;;14.70;99.90;;;;;;5070453;28;20431;-73
2022/09/27 08:25:30;;;;;;;0.10;0.10;;;15.10;99.90;;;;;;5071092;28;20428;-73
2022/09/27 08:27:59;;;;;;;0.20;0.20;;;15.60;99.90;;;;;;5070657;28;20431;-72
2022/09/27 08:30:27;;;;;;;0.10;0.10;;;15.80;99.90;;;;;;5070795;28;20424;-75
2022/09/27 08:32:58;;;;;;;0.10;0.10;;;16.10;99.90;;;;;;5069446;28;20420;-75
2022/09/27 08:35:28;;;;;;;0.32;0.30;;;16.10;99.90;;;;;;5070773;28;20432;-76
2022/09/27 08:37:57;;;;;;;0.20;0.20;;;15.80;99.90;;;;;;5070930;28;20543;-74
2022/09/27 08:40:35;;;;;;;0.13;0.13;;;15.10;99.90;;;;;;5069359;28;21097;-73
2022/09/27 08:43:10;;;;;;;0.20;0.20;;;15.30;99.90;;;;;;5070416;28;20431;-74
2022/09/27 08:45:54;;;;;;;0.30;0.25;;;15.60;99.90;;;;;;5069114;28;20510;-74
2022/09/27 08:48:25;;;;;;;0.10;0.10;;;15.90;99.90;;;;;;5070656;28;20428;-76
2022/09/27 08:50:52;;;;;;;0.10;0.10;;;16.10;99.90;;;;;;5070807;28;20436;-75
2022/09/27 08:53:51;;;;;;;0.10;0.10;;;16.20;99.90;;;;;;5069793;28;20984;-73
2022/09/27 08:56:20;;;;;;;4.40;0.20;;;16.30;99.90;;;;;;5069688;28;20433;-72
2022/09/27 08:59:22;;;;;;;0.20;0.20;;;16.10;99.90;;;;;;5070772;28;20431;-76
2022/09/27 09:01:50;;;;;;;0.20;0.20;;;15.70;99.90;;;;;;5070945;28;20419;-76
2022/09/27 09:04:34;;;;;;;0.20;0.20;;;15.10;99.90;;;;;;5070188;28;20419;-73
2022/09/27 09:07:23;;;;;;;0.20;0.20;;;14.60;99.90;;;;;;5070465;28;20925;-76
2022/09/27 09:10:03;;;;;;;0.20;0.20;;;14.40;99.90;;;;;;5070582;28;20484;-75
2022/09/27 09:13:06;;;;;;;0.10;0.10;;;14.60;99.90;;;;;;5069439;28;20431;-76
2022/09/27 09:15:58;;;;;;;0.10;0.10;;;14.60;99.90;;;;;;5070846;28;20461;-76
2022/09/27 09:18:34;;;;;;;0.10;0.10;;;14.30;99.90;;;;;;5071112;28;20428;-75
2022/09/27 09:21:11;;;;;;;0.20;0.20;;;14.40;99.90;;;;;;5070407;28;20428;-75
2022/09/27 09:23:56;;;;;;;0.22;0.22;;;14.50;99.90;;;;;;5069995;28;20438;-75
2022/09/27 09:26:28;;;;;;;0.20;0.20;;;14.60;99.90;;;;;;5070162;28;20427;-72
2022/09/27 09:29:32;;;;;;;0.20;0.20;;;14.50;99.90;;;;;;5070116;28;20928;-75
2022/09/27 09:32:30;;;;;;;0.17;0.17;;;14.70;99.90;;;;;;5070362;28;20439;-73
2022/09/27 09:35:02;;;;;;;0.20;0.20;;;14.90;99.90;;;;;;5070472;28;20777;-75
2022/09/27 09:37:44;;;;;;;0.20;0.20;;;14.80;99.90;;;;;;5070619;28;20431;-74
2022/09/27 09:40:22;;;;;;;0.15;0.15;;;14.80;99.90;;;;;;5070867;28;20428;-75
2022/09/27 09:43:19;;;;;;;0.30;0.30;;;14.70;99.90;;;;;;5070581;28;20458;-77
2022/09/27 09:45:56;;;;;;;0.10;0.10;;;14.90;99.90;;;;;;5065135;28;20485;-76
2022/09/27 09:48:45;;;;;;;0.10;0.10;;;15.10;99.90;;;;;;5070096;28;20430;-75
2022/09/27 09:51:21;;;;;;;0.20;0.20;;;15.30;99.90;;;;;;5070153;28;20435;-75
2022/09/27 09:53:56;;;;;;;0.30;0.30;;;15.30;99.90;;;;;;5070217;28;20435;-77
2022/09/27 09:56:31;;;;;;;0.20;0.20;;;15.00;99.90;;;;;;5070516;28;20802;-76
2022/09/27 09:59:04;;;;;;;0.20;0.20;;;14.80;99.90;;;;;;5071108;28;20510;-78
2022/09/27 10:01:46;;;;;;;0.20;0.20;;;14.40;99.90;;;;;;5069934;28;20427;-75
2022/09/27 10:04:27;;;;;;;0.40;0.20;;;14.20;99.90;;;;;;5070241;28;20423;-77
2022/09/27 10:06:57;;;;;;;0.20;0.20;;;14.00;99.90;;;;;;5069255;28;20489;-72
2022/09/27 10:09:26;;;;;;;0.60;0.27;;;14.00;99.90;;;;;;5069985;28;21166;-74
2022/09/27 10:11:56;;;;;;;0.10;0.10;;;14.50;99.90;;;;;;5070830;28;20424;-76
2022/09/27 10:14:25;;;;;;;0.20;0.20;;;14.60;99.90;;;;;;5070457;28;20435;-75
2022/09/27 10:16:59;;;;;;;0.10;0.10;;;15.00;99.90;;;;;;5070355;28;20423;-74
2022/09/27 10:19:29;;;;;;;0.10;0.10;;;14.90;99.90;;;;;;5069011;28;20515;-77
2022/09/27 10:22:15;;;;;;;0.10;0.10;;;14.70;99.90;;;;;;5072206;28;20427;-77
2022/09/27 10:24:57;;;;;;;0.30;0.25;;;14.70;99.90;;;;;;5074464;28;20517;-78
2022/09/27 10:27:25;;;;;;;0.40;0.30;;;14.80;99.90;;;;;;5073179;28;20530;-75
2022/09/27 10:29:59;;;;;;;0.20;0.20;;;14.90;99.90;;;;;;5073757;28;20518;-75
2022/09/27 10:32:31;;;;;;;0.20;0.20;;;14.80;99.90;;;;;;5074043;28;20778;-77
2022/09/27 10:35:35;;;;;;;0.20;0.20;;;14.90;99.90;;;;;;5074038;28;20431;-78
2022/09/27 10:38:25;;;;;;;0.20;0.20;;;14.90;99.90;;;;;;5073758;28;20478;-73
2022/09/27 10:40:57;;;;;;;0.10;0.10;;;14.90;99.90;;;;;;5074250;28;20815;-77
2022/09/27 10:43:42;;;;;;;0.40;0.20;;;14.90;99.90;;;;;;5076027;28;20427;-76
2022/09/27 10:46:26;;;;;;;0.15;0.15;;;15.20;99.90;;;;;;5073507;28;20488;-78
2022/09/27 10:49:27;;;;;;;0.15;0.15;;;15.70;99.90;;;;;;5073854;28;20897;-78
2022/09/27 10:51:59;;;;;;;0.30;0.30;;;16.10;99.90;;;;;;5074181;28;20428;-77
2022/09/27 10:54:38;;;;;;;0.22;0.22;;;16.70;99.90;;;;;;5073636;28;20442;-78
2022/09/27 10:57:23;;;;;;;1.60;0.20;;;16.70;99.90;;;;;;5073327;28;20431;-80
2022/09/27 11:00:31;;;;;;;0.15;0.15;;;16.40;99.90;;;;;;5074146;28;20442;-77
2022/09/27 11:03:14;;;;;;;0.20;0.20;;;15.70;99.90;;;;;;4981694;28;20849;-79
2022/09/27 11:05:43;;;;;;;0.20;0.20;;;15.30;99.90;;;;;;4992581;28;20430;-74
2022/09/27 11:08:22;;;;;;;0.20;0.20;;;15.10;99.90;;;;;;4992078;28;20953;-78
2022/09/27 11:11:05;;;;;;;0.10;0.10;;;15.00;99.90;;;;;;4976339;28;20438;-77
2022/09/27 11:13:35;;;;;;;0.13;0.13;;;15.30;99.90;;;;;;4991520;28;20829;-80
2022/09/27 11:16:37;;;;;;;0.20;0.20;;;15.50;99.90;;;;;;4992126;28;20430;-79
2022/09/27 11:19:39;;;;;;;0.50;0.20;;;15.70;99.90;;;;;;4991553;28;20625;-75
2022/09/27 11:22:43;;;;;;;0.70;0.50;;;15.90;99.90;;;;;;4991951;28;20441;-81
2022/09/27 11:25:33;;;;;;;0.22;0.22;;;16.00;99.90;;;;;;4991615;28;20480;-78
2022/09/27 11:28:11;;;;;;;0.40;0.40;;;16.10;99.90;;;;;;4992000;28;20469;-79
2022/09/27 11:31:17;;;;;;;0.20;0.20;;;16.20;99.90;;;;;;4991292;28;20456;-74
2022/09/27 11:34:20;;;;;;;0.20;0.20;;;16.30;99.90;;;;;;4990554;28;20438;-74
2022/09/27 11:37:17;;;;;;;0.40;0.40;;;16.30;99.90;;;;;;5016438;28;20438;-80
2022/09/27 11:40:02;;;;;;;0.20;0.20;;;16.10;99.90;;;;;;5073465;28;20431;-80
2022/09/27 11:42:48;;;;;;;0.20;0.20;;;16.40;99.90;;;;;;5073723;28;20442;-78
2022/09/27 11:45:38;;;;;;;0.20;0.20;;;16.50;99.90;;;;;;5072476;28;20518;-76
2022/09/27 11:48:50;;;;;;;0.28;0.28;;;16.60;99.90;;;;;;5072616;28;20448;-74
2022/09/27 11:51:17;;;;;;;0.30;0.30;;;16.50;99.90;;;;;;5072224;28;20423;-78
2022/09/27 11:53:50;;;;;;;0.50;0.50;;;16.40;99.90;;;;;;5072379;28;20439;-79
2022/09/27 11:56:39;;;;;;;0.20;0.20;;;16.40;99.90;;;;;;5073099;28;20431;-78
2022/09/27 11:59:43;;;;;;;0.20;0.20;;;16.40;99.90;;;;;;5073763;28;20431;-79
2022/09/27 12:02:35;;;;;;;0.30;0.30;;;16.50;99.90;;;;;;5073553;28;20428;-76
2022/09/27 12:05:20;;;;;;;0.20;0.20;;;16.60;99.90;;;;;;5072576;28;20427;-79
2022/09/27 12:08:05;;;;;;;0.10;0.10;;;16.60;99.90;;;;;;5071374;28;20431;-77
2022/09/27 12:10:34;;;;;;;0.30;0.30;;;16.40;99.90;;;;;;5072659;28;20430;-76
2022/09/27 12:13:03;;;;;;;0.20;0.20;;;16.00;99.90;;;;;;5073121;28;20427;-77
2022/09/27 12:15:33;;;;;;;0.23;0.23;;;15.60;99.90;;;;;;5072119;28;20431;-79
2022/09/27 12:18:24;;;;;;;1.60;0.30;;;15.60;99.90;;;;;;5072580;28;20432;-79
2022/09/27 12:20:52;;;;;;;0.20;0.20;;;15.60;99.90;;;;;;5073276;28;20439;-80
2022/09/27 12:23:56;;;;;;;0.57;0.20;;;15.80;99.90;;;;;;5072926;28;20427;-77
2022/09/27 12:26:36;;;;;;;0.30;0.30;;;15.70;99.90;;;;;;5010404;28;20437;-79
2022/09/27 12:29:21;;;;;;;0.40;0.40;;;15.80;99.90;;;;;;5010172;28;20441;-79
2022/09/27 12:31:55;;;;;;;1.02;0.40;;;16.20;99.90;;;;;;5010831;28;20425;-79
2022/09/27 12:34:43;;;;;;;0.20;0.20;;;16.30;99.90;;;;;;5010171;28;20467;-81
2022/09/27 12:37:50;;;;;;;0.30;0.30;;;16.00;99.90;;;;;;5010144;28;21009;-80
2022/09/27 12:40:28;;;;;;;0.40;0.40;;;15.90;99.90;;;;;;5010790;28;20440;-78
2022/09/27 12:43:11;;;;;;;0.40;0.40;;;16.00;99.90;;;;;;5010469;28;20536;-78
2022/09/27 12:45:46;;;;;;;0.17;0.17;;;16.00;99.90;;;;;;5009746;28;20440;-80
2022/09/27 12:48:54;;;;;;;0.20;0.20;;;15.70;99.90;;;;;;5010095;28;20433;-77
2022/09/27 12:51:22;;;;;;;0.17;0.17;;;15.30;99.90;;;;;;5000518;28;20447;-79
2022/09/27 12:54:18;;;;;;;0.30;0.30;;;14.70;99.90;;;;;;5008956;28;20873;-78
2022/09/27 12:57:07;;;;;;;0.20;0.20;;;14.20;99.90;;;;;;5009179;28;20451;-77
2022/09/27 12:59:43;;;;;;;0.50;0.40;;;13.70;99.90;;;;;;5009183;28;20436;-79
2022/09/27 13:02:19;;;;;;;0.32;0.32;;;13.20;99.90;;;;;;5042903;28;21096;-77
2022/09/27 13:04:59;;;;;;;0.17;0.17;;;12.50;99.90;;;;;;5071538;28;20453;-80
2022/09/27 13:07:52;;;;;;;0.20;0.20;;;12.10;99.90;;;;;;5072123;28;20466;-79
2022/09/27 13:10:47;;;;;;;0.28;0.28;;;11.90;99.90;;;;;;5071822;28;20517;-79
2022/09/27 13:13:20;;;;;;;0.20;0.20;;;12.10;99.90;;;;;;5071601;28;20427;-79
2022/09/27 13:15:57;;;;;;;0.10;0.10;;;12.10;99.90;;;;;;5072117;28;20423;-80
2022/09/27 13:18:34;;;;;;;0.13;0.13;;;12.40;99.90;;;;;;5072311;28;20496;-79
2022/09/27 13:21:03;;;;;;;0.20;0.20;;;12.50;99.90;;;;;;5077095;28;20451;-81
2022/09/27 13:23:30;;;;;;;0.10;0.10;;;12.80;99.90;;;;;;5073493;28;20481;-80
2022/09/27 13:26:17;;;;;;;0.22;0.22;;;12.90;99.90;;;;;;5071975;28;20474;-80
2022/09/27 13:28:50;;;;;;;0.20;0.20;;;13.00;99.90;;;;;;5061256;28;20431;-80
2022/09/27 13:31:58;;;;;;;0.80;0.15;;;13.10;99.90;;;;;;5071584;28;20435;-81
2022/09/27 13:34:41;;;;;;;0.20;0.20;;;13.00;99.90;;;;;;5074536;28;20442;-78
2022/09/27 13:37:44;;;;;;;0.10;0.10;;;13.00;99.90;;;;;;5070516;28;20910;-80
2022/09/27 13:40:32;;;;;;;0.20;0.20;;;13.00;99.90;;;;;;5071881;28;20432;-77
2022/09/27 13:43:16;;;;;;;0.20;0.20;;;13.20;99.90;;;;;;5069889;28;20426;-79